Detall de PIREP

Printer-friendly versionPDF version

[2014/04/25 15:49:00]
Flight IATA:CT0003
Pilot Number:012
Company ICAO:CAT
Aircraft Type:DC3/A
PAX:0
Aircraft Registration:CARGO
Departing Airport: LICJ
Destination Airport: LIRN
Alternate Airport:LIRI
Online: VATSIM
Route:ROSAS M742 SOR
Flight Level:F080
No Slew and time accel
No pause
Crash detect
Detect pilot in Cockpit between each 30 and 45 minutes
15:49 Zero fuel Weight: 18987 Lbs, Fuel Weight: 1741 Lbs
15:49 VATSIM:LICJ 251520Z 23009KT 9999 FEW060 20/13 Q1012
15:49 VATSIM:LIRN 251520Z 19009KT 160V220 9999 FEW015 18/15 Q1011
15:51 Parking Brakes off
15:56 Take-off
15:56 Take off Weight: 20705 Lbs
15:56 Wind: 227º @ 009 Knots Heading: 248º
15:56 POS N38º 10´ 57´´ E013º 06´ 40´´
15:56 Gear Up: 101 Knots
16:04 TOC
16:04 Fuel Weight: 1607 Lb
16:11 Wind:225º@014 Knots Heading: 022º Ground Speed: 177 Knots Altitude 7959 ft
16:26 Wind:226º@011 Knots Heading: 017º Ground Speed: 175 Knots Altitude 7939 ft
16:41 Wind:094º@008 Knots Heading: 022º Ground Speed: 164 Knots Altitude 7936 ft
16:56 Wind:094º@007 Knots Heading: 017º Ground Speed: 170 Knots Altitude 7860 ft
16:56 TOD
16:56 Fuel Weight: 1041 Lb
17:04 Flaps:1 at 120 Knots
17:04 Flaps:2 at 99 Knots
17:05 Gear Down: 78 Knots
17:06 Flaps:3 at 91 Knots
17:07 Flaps:4 at 81 Knots
17:08 TouchDown:Rate -159 ft/min Speed: 69 Knots
17:08 Flaps:3 at 32 Knots
17:08 Flaps:0 at 31 Knots
17:09 VATSIM:LIRN 251650Z 20007KT 9999 FEW015 17/15 Q1011
17:09 Land
17:09 Wind:207º@007 Knots
17:09 Heading: 240º
17:09 Flight Duration: 01:13
17:09 Landing Weight: 19932 Lbs
17:09 POS N40º 53´ 13´´ E014º 17´ 35´´
17:10 Parking brakes on
17:10 Block to Block Duration: 01:19
17:10 Final Fuel: 939 Lbls
17:10 Spent Fuel: 802 Lbls
17:10 Flight Length: 190 NM
17:10 TOD Land Length: 29 NM

Exportar CSV

Powered by Drupal - Modified by Danger4k